sensor_id;sensor_type;location;lat;lon;timestamp;pressure;altitude;pressure_sealevel;temperature;humidity
38227;BME280;24026;49.446;8.576;2022-09-09T00:00:15;100054.75;;;23.67;46.59
38227;BME280;24026;49.446;8.576;2022-09-09T00:02:37;100064.03;;;23.66;46.78
38227;BME280;24026;49.446;8.576;2022-09-09T00:05:02;100060.06;;;23.63;46.66
38227;BME280;24026;49.446;8.576;2022-09-09T00:07:41;100058.94;;;23.64;46.56
38227;BME280;24026;49.446;8.576;2022-09-09T00:10:25;100060.50;;;23.65;46.76
38227;BME280;24026;49.446;8.576;2022-09-09T00:15:24;100057.00;;;23.65;46.73
38227;BME280;24026;49.446;8.576;2022-09-09T00:25:58;100056.44;;;23.59;47.20
38227;BME280;24026;49.446;8.576;2022-09-09T00:28:23;100050.56;;;23.57;46.97
38227;BME280;24026;49.446;8.576;2022-09-09T00:30:46;100052.91;;;23.59;46.89
38227;BME280;24026;49.446;8.576;2022-09-09T00:33:11;100052.13;;;23.58;47.13
38227;BME280;24026;49.446;8.576;2022-09-09T00:35:40;100054.84;;;23.58;47.14
38227;BME280;24026;49.446;8.576;2022-09-09T00:38:10;100054.41;;;23.56;47.15
38227;BME280;24026;49.446;8.576;2022-09-09T00:40:38;100043.56;;;23.56;47.24
38227;BME280;24026;49.446;8.576;2022-09-09T00:48:13;100037.69;;;23.54;47.07
38227;BME280;24026;49.446;8.576;2022-09-09T00:50:59;100044.66;;;23.55;47.29
38227;BME280;24026;49.446;8.576;2022-09-09T00:56:12;100048.06;;;23.52;47.31
38227;BME280;24026;49.446;8.576;2022-09-09T00:58:34;100059.38;;;23.54;47.31
38227;BME280;24026;49.446;8.576;2022-09-09T01:03:40;100051.91;;;23.51;47.23
38227;BME280;24026;49.446;8.576;2022-09-09T01:08:54;100049.66;;;23.53;47.37
38227;BME280;24026;49.446;8.576;2022-09-09T01:11:25;100047.28;;;23.52;47.45
38227;BME280;24026;49.446;8.576;2022-09-09T01:13:47;100065.47;;;23.51;47.30
38227;BME280;24026;49.446;8.576;2022-09-09T01:16:12;100058.13;;;23.52;47.40
38227;BME280;24026;49.446;8.576;2022-09-09T01:18:36;100055.75;;;23.50;47.63
38227;BME280;24026;49.446;8.576;2022-09-09T01:21:14;100059.94;;;23.47;47.64
38227;BME280;24026;49.446;8.576;2022-09-09T01:26:29;100061.38;;;23.45;47.53
38227;BME280;24026;49.446;8.576;2022-09-09T01:28:51;100063.75;;;23.46;47.59
38227;BME280;24026;49.446;8.576;2022-09-09T01:31:28;100052.47;;;23.44;47.61
38227;BME280;24026;49.446;8.576;2022-09-09T01:33:49;100062.84;;;23.42;47.66
38227;BME280;24026;49.446;8.576;2022-09-09T01:36:21;100053.91;;;23.42;47.63
38227;BME280;24026;49.446;8.576;2022-09-09T01:38:45;100060.94;;;23.43;47.67
38227;BME280;24026;49.446;8.576;2022-09-09T01:41:05;100061.72;;;23.43;47.70
38227;BME280;24026;49.446;8.576;2022-09-09T01:43:27;100062.06;;;23.42;47.69
38227;BME280;24026;49.446;8.576;2022-09-09T01:45:51;100066.69;;;23.41;47.70
38227;BME280;24026;49.446;8.576;2022-09-09T01:48:13;100070.50;;;23.40;47.62
38227;BME280;24026;49.446;8.576;2022-09-09T01:50:33;100064.75;;;23.42;47.56
38227;BME280;24026;49.446;8.576;2022-09-09T01:52:57;100063.19;;;23.41;48.01
38227;BME280;24026;49.446;8.576;2022-09-09T01:55:20;100064.31;;;23.40;47.82
38227;BME280;24026;49.446;8.576;2022-09-09T01:57:50;100063.53;;;23.39;47.85
38227;BME280;24026;49.446;8.576;2022-09-09T02:00:15;100065.44;;;23.39;47.90
38227;BME280;24026;49.446;8.576;2022-09-09T02:05:36;100064.63;;;23.38;47.88
38227;BME280;24026;49.446;8.576;2022-09-09T02:08:08;100060.81;;;23.39;47.76
38227;BME280;24026;49.446;8.576;2022-09-09T02:11:01;100060.38;;;23.37;48.00
38227;BME280;24026;49.446;8.576;2022-09-09T02:13:24;100063.06;;;23.37;48.07
38227;BME280;24026;49.446;8.576;2022-09-09T02:16:01;100067.34;;;23.38;48.13
38227;BME280;24026;49.446;8.576;2022-09-09T02:18:28;100063.06;;;23.37;48.00
38227;BME280;24026;49.446;8.576;2022-09-09T02:20:51;100063.06;;;23.37;48.22
38227;BME280;24026;49.446;8.576;2022-09-09T02:23:14;100062.59;;;23.35;48.08
38227;BME280;24026;49.446;8.576;2022-09-09T02:25:36;100066.13;;;23.36;48.27
38227;BME280;24026;49.446;8.576;2022-09-09T02:27:57;100067.69;;;23.37;47.99
38227;BME280;24026;49.446;8.576;2022-09-09T02:30:19;100063.06;;;23.37;48.28
38227;BME280;24026;49.446;8.576;2022-09-09T02:32:42;100064.53;;;23.35;48.13
38227;BME280;24026;49.446;8.576;2022-09-09T02:35:08;100063.75;;;23.34;48.33
38227;BME280;24026;49.446;8.576;2022-09-09T02:37:36;100062.94;;;23.34;48.07
38227;BME280;24026;49.446;8.576;2022-09-09T02:39:57;100066.47;;;23.34;48.24
38227;BME280;24026;49.446;8.576;2022-09-09T02:42:17;100058.31;;;23.34;48.31
38227;BME280;24026;49.446;8.576;2022-09-09T02:44:39;100062.94;;;23.34;48.16
38227;BME280;24026;49.446;8.576;2022-09-09T02:47:34;100066.78;;;23.33;48.13
38227;BME280;24026;49.446;8.576;2022-09-09T02:50:19;100068.69;;;23.32;48.32
38227;BME280;24026;49.446;8.576;2022-09-09T02:55:12;100061.91;;;23.26;48.47
38227;BME280;24026;49.446;8.576;2022-09-09T02:57:35;100074.47;;;23.30;48.50
38227;BME280;24026;49.446;8.576;2022-09-09T02:59:59;100063.63;;;23.30;48.41
38227;BME280;24026;49.446;8.576;2022-09-09T03:02:20;100062.81;;;23.30;48.46
38227;BME280;24026;49.446;8.576;2022-09-09T03:04:41;100056.59;;;23.29;48.45
38227;BME280;24026;49.446;8.576;2022-09-09T03:07:04;100055.34;;;23.27;48.58
38227;BME280;24026;49.446;8.576;2022-09-09T03:09:25;100053.78;;;23.26;48.45
38227;BME280;24026;49.446;8.576;2022-09-09T03:11:46;100039.09;;;23.27;48.66
38227;BME280;24026;49.446;8.576;2022-09-09T03:14:06;100042.94;;;23.26;48.52
38227;BME280;24026;49.446;8.576;2022-09-09T03:16:26;100047.09;;;23.23;48.86
38227;BME280;24026;49.446;8.576;2022-09-09T03:18:47;100058.75;;;23.24;48.69
38227;BME280;24026;49.446;8.576;2022-09-09T03:21:07;100057.16;;;23.23;48.64
38227;BME280;24026;49.446;8.576;2022-09-09T03:23:28;100055.91;;;23.20;48.72
38227;BME280;24026;49.446;8.576;2022-09-09T03:25:49;100058.28;;;23.22;48.66
38227;BME280;24026;49.446;8.576;2022-09-09T03:28:11;100054.00;;;23.21;48.71
38227;BME280;24026;49.446;8.576;2022-09-09T03:30:31;100050.94;;;23.22;48.73
38227;BME280;24026;49.446;8.576;2022-09-09T03:32:52;100050.13;;;23.22;48.67
38227;BME280;24026;49.446;8.576;2022-09-09T03:35:12;100047.75;;;23.20;48.93
38227;BME280;24026;49.446;8.576;2022-09-09T03:37:33;100048.56;;;23.21;49.01
38227;BME280;24026;49.446;8.576;2022-09-09T03:39:53;100054.78;;;23.21;48.73
38227;BME280;24026;49.446;8.576;2022-09-09T03:42:16;100058.59;;;23.20;48.95
38227;BME280;24026;49.446;8.576;2022-09-09T03:44:40;100046.19;;;23.19;48.91
38227;BME280;24026;49.446;8.576;2022-09-09T03:47:02;100052.72;;;23.18;49.01
38227;BME280;24026;49.446;8.576;2022-09-09T03:49:22;100044.28;;;23.20;48.74
38227;BME280;24026;49.446;8.576;2022-09-09T03:51:43;100050.34;;;23.17;48.91
38227;BME280;24026;49.446;8.576;2022-09-09T03:54:04;100055.78;;;23.17;49.11
38227;BME280;24026;49.446;8.576;2022-09-09T03:56:28;100058.47;;;23.17;48.87
38227;BME280;24026;49.446;8.576;2022-09-09T03:58:48;100061.19;;;23.17;49.02
38227;BME280;24026;49.446;8.576;2022-09-09T04:01:11;100058.47;;;23.17;49.02
38227;BME280;24026;49.446;8.576;2022-09-09T04:03:34;100066.16;;;23.15;49.06
38227;BME280;24026;49.446;8.576;2022-09-09T04:05:57;100066.16;;;23.15;49.03
38227;BME280;24026;49.446;8.576;2022-09-09T04:08:19;100067.28;;;23.13;48.91
38227;BME280;24026;49.446;8.576;2022-09-09T04:10:40;100071.59;;;23.15;48.92
38227;BME280;24026;49.446;8.576;2022-09-09T04:13:02;100074.75;;;23.17;49.05
38227;BME280;24026;49.446;8.576;2022-09-09T04:15:23;100073.97;;;23.16;49.07
38227;BME280;24026;49.446;8.576;2022-09-09T04:17:43;100063.78;;;23.13;49.06
38227;BME280;24026;49.446;8.576;2022-09-09T04:20:04;100059.84;;;23.10;49.17
38227;BME280;24026;49.446;8.576;2022-09-09T04:22:24;100067.59;;;23.12;49.08
38227;BME280;24026;49.446;8.576;2022-09-09T04:24:45;100061.06;;;23.13;49.05
38227;BME280;24026;49.446;8.576;2022-09-09T04:27:05;100059.84;;;23.10;49.17
38227;BME280;24026;49.446;8.576;2022-09-09T04:29:25;100069.88;;;23.10;49.15
38227;BME280;24026;49.446;8.576;2022-09-09T04:31:46;100078.00;;;23.10;49.12
38227;BME280;24026;49.446;8.576;2022-09-09T04:34:06;100071.78;;;23.09;49.14
38227;BME280;24026;49.446;8.576;2022-09-09T04:36:27;100062.88;;;23.09;49.26
38227;BME280;24026;49.446;8.576;2022-09-09T04:38:48;100069.41;;;23.08;49.26
38227;BME280;24026;49.446;8.576;2022-09-09T04:41:09;100078.00;;;23.10;49.25
38227;BME280;24026;49.446;8.576;2022-09-09T04:43:31;100076.44;;;23.09;49.22
38227;BME280;24026;49.446;8.576;2022-09-09T04:45:51;100077.53;;;23.08;49.25
38227;BME280;24026;49.446;8.576;2022-09-09T04:48:12;100084.06;;;23.07;49.02
38227;BME280;24026;49.446;8.576;2022-09-09T04:50:33;100091.41;;;23.06;49.51
38227;BME280;24026;49.446;8.576;2022-09-09T04:52:54;100091.09;;;23.08;48.94
38227;BME280;24026;49.446;8.576;2022-09-09T04:55:14;100094.44;;;23.05;49.38
38227;BME280;24026;49.446;8.576;2022-09-09T04:57:34;100094.13;;;23.06;49.44
38227;BME280;24026;49.446;8.576;2022-09-09T04:59:55;100094.91;;;23.07;49.20
38227;BME280;24026;49.446;8.576;2022-09-09T05:02:15;100092.22;;;23.07;49.20
38227;BME280;24026;49.446;8.576;2022-09-09T05:04:36;100095.22;;;23.05;49.12
38227;BME280;24026;49.446;8.576;2022-09-09T05:06:56;100094.91;;;23.07;49.11
38227;BME280;24026;49.446;8.576;2022-09-09T05:09:17;100096.38;;;23.04;49.26
38227;BME280;24026;49.446;8.576;2022-09-09T05:11:37;100087.44;;;23.04;49.22
38227;BME280;24026;49.446;8.576;2022-09-09T05:13:58;100100.50;;;23.02;49.25
38227;BME280;24026;49.446;8.576;2022-09-09T05:16:19;100093.03;;;22.99;49.38
38227;BME280;24026;49.446;8.576;2022-09-09T05:18:40;100105.81;;;22.98;49.46
38227;BME280;24026;49.446;8.576;2022-09-09T05:21:02;100105.69;;;22.94;49.48
38227;BME280;24026;49.446;8.576;2022-09-09T05:23:23;100103.63;;;22.91;49.72
38227;BME280;24026;49.446;8.576;2022-09-09T05:25:43;100105.09;;;22.89;49.64
38227;BME280;24026;49.446;8.576;2022-09-09T05:28:03;100107.81;;;22.89;49.50
38227;BME280;24026;49.446;8.576;2022-09-09T05:30:25;100111.63;;;22.88;49.43
38227;BME280;24026;49.446;8.576;2022-09-09T05:32:47;100109.13;;;22.83;49.58
38227;BME280;24026;49.446;8.576;2022-09-09T05:35:08;100114.09;;;22.81;50.02
38227;BME280;24026;49.446;8.576;2022-09-09T05:37:30;100117.44;;;22.78;49.91
38227;BME280;24026;49.446;8.576;2022-09-09T05:39:51;100121.16;;;22.73;50.06
38227;BME280;24026;49.446;8.576;2022-09-09T05:42:11;100119.91;;;22.70;49.99
38227;BME280;24026;49.446;8.576;2022-09-09T05:44:32;100112.75;;;22.66;50.30
38227;BME280;24026;49.446;8.576;2022-09-09T05:46:53;100133.34;;;22.58;50.20
38227;BME280;24026;49.446;8.576;2022-09-09T05:49:14;100124.56;;;22.61;50.24
38227;BME280;24026;49.446;8.576;2022-09-09T05:51:35;100124.91;;;22.60;50.34
38227;BME280;24026;49.446;8.576;2022-09-09T05:53:56;100124.13;;;22.59;50.42
38227;BME280;24026;49.446;8.576;2022-09-09T05:56:21;100122.06;;;22.56;50.44
38227;BME280;24026;49.446;8.576;2022-09-09T05:58:44;100130.38;;;22.51;50.89
38227;BME280;24026;49.446;8.576;2022-09-09T06:01:13;100130.06;;;22.52;50.81
38227;BME280;24026;49.446;8.576;2022-09-09T06:03:38;100128.59;;;22.55;50.70
38227;BME280;24026;49.446;8.576;2022-09-09T06:06:01;100130.25;;;22.47;50.75
38227;BME280;24026;49.446;8.576;2022-09-09T06:08:22;100139.66;;;22.41;50.94
38227;BME280;24026;49.446;8.576;2022-09-09T06:10:42;100137.47;;;22.34;51.19
38227;BME280;24026;49.446;8.576;2022-09-09T06:13:03;100147.97;;;22.36;51.13
38227;BME280;24026;49.446;8.576;2022-09-09T06:15:24;100140.38;;;22.29;51.38
38227;BME280;24026;49.446;8.576;2022-09-09T06:17:44;100134.31;;;22.32;51.19
38227;BME280;24026;49.446;8.576;2022-09-09T06:20:05;100137.34;;;22.31;51.04
38227;BME280;24026;49.446;8.576;2022-09-09T06:22:26;100139.06;;;22.35;51.01
38227;BME280;24026;49.446;8.576;2022-09-09T06:24:46;100129.03;;;22.36;51.18
38227;BME280;24026;49.446;8.576;2022-09-09T06:27:07;100129.69;;;22.33;50.90
38227;BME280;24026;49.446;8.576;2022-09-09T06:29:27;100140.50;;;22.33;50.77
38227;BME280;24026;49.446;8.576;2022-09-09T06:31:48;100133.16;;;22.33;50.93
38227;BME280;24026;49.446;8.576;2022-09-09T06:34:08;100130.47;;;22.33;51.12
38227;BME280;24026;49.446;8.576;2022-09-09T06:36:31;100134.13;;;22.37;50.83
38227;BME280;24026;49.446;8.576;2022-09-09T06:38:52;100139.19;;;22.39;50.64
38227;BME280;24026;49.446;8.576;2022-09-09T06:41:14;100143.34;;;22.36;51.21
38227;BME280;24026;49.446;8.576;2022-09-09T06:43:35;100152.28;;;22.37;51.00
38227;BME280;24026;49.446;8.576;2022-09-09T06:46:04;100153.91;;;22.29;51.17
38227;BME280;24026;49.446;8.576;2022-09-09T06:48:26;100150.53;;;22.32;51.46
38227;BME280;24026;49.446;8.576;2022-09-09T06:50:46;100153.25;;;22.32;50.96
38227;BME280;24026;49.446;8.576;2022-09-09T06:53:07;100151.81;;;22.26;51.19
38227;BME280;24026;49.446;8.576;2022-09-09T06:55:27;100150.09;;;22.30;51.30
38227;BME280;24026;49.446;8.576;2022-09-09T06:57:48;100145.00;;;22.29;51.18
38227;BME280;24026;49.446;8.576;2022-09-09T07:00:09;100148.16;;;22.31;51.34
38227;BME280;24026;49.446;8.576;2022-09-09T07:02:29;100141.63;;;22.23;51.22
38227;BME280;24026;49.446;8.576;2022-09-09T07:04:50;100150.56;;;22.24;51.10
38227;BME280;24026;49.446;8.576;2022-09-09T07:07:11;100152.13;;;22.25;51.39
38227;BME280;24026;49.446;8.576;2022-09-09T07:09:33;100154.06;;;22.24;51.13
38227;BME280;24026;49.446;8.576;2022-09-09T07:11:54;100149.94;;;22.18;51.20
38227;BME280;24026;49.446;8.576;2022-09-09T07:14:15;100156.00;;;22.15;51.13
38227;BME280;24026;49.446;8.576;2022-09-09T07:16:36;100147.28;;;22.09;51.49
38227;BME280;24026;49.446;8.576;2022-09-09T07:18:57;100154.28;;;22.10;51.47
38227;BME280;24026;49.446;8.576;2022-09-09T07:21:18;100152.41;;;22.02;51.34
38227;BME280;24026;49.446;8.576;2022-09-09T07:23:40;100150.75;;;22.10;51.40
38227;BME280;24026;49.446;8.576;2022-09-09T07:26:02;100150.63;;;22.06;51.70
38227;BME280;24026;49.446;8.576;2022-09-09T07:28:24;100144.69;;;22.13;51.21
38227;BME280;24026;49.446;8.576;2022-09-09T07:30:53;100148.69;;;22.15;51.19
38227;BME280;24026;49.446;8.576;2022-09-09T07:33:13;100152.03;;;22.12;51.41
38227;BME280;24026;49.446;8.576;2022-09-09T07:35:33;100151.06;;;22.17;51.49
38227;BME280;24026;49.446;8.576;2022-09-09T07:37:54;100155.03;;;22.19;51.25
38227;BME280;24026;49.446;8.576;2022-09-09T07:40:14;100155.97;;;22.24;50.92
38227;BME280;24026;49.446;8.576;2022-09-09T07:42:35;100159.78;;;22.31;50.96
38227;BME280;24026;49.446;8.576;2022-09-09T07:44:56;100157.22;;;22.26;50.77
38227;BME280;24026;49.446;8.576;2022-09-09T07:47:16;100154.50;;;22.26;50.92
38227;BME280;24026;49.446;8.576;2022-09-09T07:49:37;100154.50;;;22.26;50.91
38227;BME280;24026;49.446;8.576;2022-09-09T07:51:57;100156.59;;;22.29;50.97
38227;BME280;24026;49.446;8.576;2022-09-09T07:54:19;100169.50;;;22.32;50.88
38227;BME280;24026;49.446;8.576;2022-09-09T07:56:41;100163.44;;;22.35;50.59
38227;BME280;24026;49.446;8.576;2022-09-09T07:59:01;100161.97;;;22.38;50.85
38227;BME280;24026;49.446;8.576;2022-09-09T08:04:00;100162.09;;;22.42;50.62
38227;BME280;24026;49.446;8.576;2022-09-09T08:06:21;100169.13;;;22.43;50.80
38227;BME280;24026;49.446;8.576;2022-09-09T08:08:42;100161.13;;;22.46;50.85
38227;BME280;24026;49.446;8.576;2022-09-09T08:11:09;100168.16;;;22.47;50.57
38227;BME280;24026;49.446;8.576;2022-09-09T08:13:30;100174.03;;;22.49;50.86
38227;BME280;24026;49.446;8.576;2022-09-09T08:15:51;100172.09;;;22.50;51.10
38227;BME280;24026;49.446;8.576;2022-09-09T08:18:12;100170.72;;;22.44;51.30
38227;BME280;24026;49.446;8.576;2022-09-09T08:20:33;100178.84;;;22.44;51.39
38227;BME280;24026;49.446;8.576;2022-09-09T08:22:55;100176.78;;;22.41;51.41
38227;BME280;24026;49.446;8.576;2022-09-09T08:25:16;100176.78;;;22.41;51.30
38227;BME280;24026;49.446;8.576;2022-09-09T08:27:36;100194.13;;;22.39;51.48
38227;BME280;24026;49.446;8.576;2022-09-09T08:29:57;100182.34;;;22.44;51.42
38227;BME280;24026;49.446;8.576;2022-09-09T08:32:17;100175.78;;;22.45;51.38
38227;BME280;24026;49.446;8.576;2022-09-09T08:34:39;100167.38;;;22.38;51.62
38227;BME280;24026;49.446;8.576;2022-09-09T08:37:00;100178.34;;;22.42;52.15
38227;BME280;24026;49.446;8.576;2022-09-09T08:39:21;100171.19;;;22.46;51.83
38227;BME280;24026;49.446;8.576;2022-09-09T08:51:53;100176.91;;;22.44;52.52
38227;BME280;24026;49.446;8.576;2022-09-09T08:54:16;100180.22;;;22.50;52.66
38227;BME280;24026;49.446;8.576;2022-09-09T08:59:02;100187.75;;;22.44;53.01
38227;BME280;24026;49.446;8.576;2022-09-09T09:01:50;100179.13;;;22.51;52.75
38227;BME280;24026;49.446;8.576;2022-09-09T09:04:33;100186.09;;;22.52;52.39
38227;BME280;24026;49.446;8.576;2022-09-09T09:07:07;100186.59;;;22.45;52.63
38227;BME280;24026;49.446;8.576;2022-09-09T09:10:44;100187.09;;;22.47;52.54
38227;BME280;24026;49.446;8.576;2022-09-09T09:12:41;100187.56;;;22.49;52.41
38227;BME280;24026;49.446;8.576;2022-09-09T09:15:05;100168.16;;;22.47;52.46
38227;BME280;24026;49.446;8.576;2022-09-09T09:17:31;100167.50;;;22.50;52.39
38227;BME280;24026;49.446;8.576;2022-09-09T09:19:53;100178.16;;;22.47;52.08
38227;BME280;24026;49.446;8.576;2022-09-09T09:22:26;100163.31;;;22.53;52.20
38227;BME280;24026;49.446;8.576;2022-09-09T09:27:36;100181.75;;;22.60;51.99
38227;BME280;24026;49.446;8.576;2022-09-09T09:30:05;100170.94;;;22.60;51.64
38227;BME280;24026;49.446;8.576;2022-09-09T09:32:30;100173.50;;;22.56;51.51
38227;BME280;24026;49.446;8.576;2022-09-09T09:34:56;100168.69;;;22.62;51.36
38227;BME280;24026;49.446;8.576;2022-09-09T09:37:25;100159.44;;;22.63;51.14
38227;BME280;24026;49.446;8.576;2022-09-09T09:39:47;100161.50;;;22.66;51.49
38227;BME280;24026;49.446;8.576;2022-09-09T09:42:10;100161.31;;;22.71;51.23
38227;BME280;24026;49.446;8.576;2022-09-09T09:44:33;100170.41;;;22.66;50.99
38227;BME280;24026;49.446;8.576;2022-09-09T09:47:14;100174.41;;;22.69;50.81
38227;BME280;24026;49.446;8.576;2022-09-09T09:49:35;100172.16;;;22.71;50.75
38227;BME280;24026;49.446;8.576;2022-09-09T09:52:00;100179.31;;;22.67;51.32
38227;BME280;24026;49.446;8.576;2022-09-09T09:54:27;100187.44;;;22.67;51.14
38227;BME280;24026;49.446;8.576;2022-09-09T09:56:49;100198.28;;;22.67;50.92
38227;BME280;24026;49.446;8.576;2022-09-09T09:59:35;100197.03;;;22.64;51.32
38227;BME280;24026;49.446;8.576;2022-09-09T10:02:31;100213.75;;;22.66;51.08
38227;BME280;24026;49.446;8.576;2022-09-09T10:04:47;100217.72;;;22.69;51.09
38227;BME280;24026;49.446;8.576;2022-09-09T10:07:25;100215.03;;;22.69;51.27
38227;BME280;24026;49.446;8.576;2022-09-09T10:09:53;100217.72;;;22.69;51.92
38227;BME280;24026;49.446;8.576;2022-09-09T10:20:20;100203.19;;;22.73;52.46
38227;BME280;24026;49.446;8.576;2022-09-09T10:22:47;100188.84;;;22.73;52.49
38227;BME280;24026;49.446;8.576;2022-09-09T10:30:38;100184.84;;;22.79;53.68
38227;BME280;24026;49.446;8.576;2022-09-09T10:33:51;100178.34;;;22.71;54.12
38227;BME280;24026;49.446;8.576;2022-09-09T10:36:25;100170.69;;;22.73;53.81
38227;BME280;24026;49.446;8.576;2022-09-09T10:44:31;100156.03;;;22.74;53.70
38227;BME280;24026;49.446;8.576;2022-09-09T10:47:19;100144.41;;;22.74;53.51
38227;BME280;24026;49.446;8.576;2022-09-09T10:50:12;100149.97;;;22.78;53.58
38227;BME280;24026;49.446;8.576;2022-09-09T10:55:42;100142.09;;;22.85;53.39
38227;BME280;24026;49.446;8.576;2022-09-09T10:58:05;100138.28;;;22.86;53.09
38227;BME280;24026;49.446;8.576;2022-09-09T11:00:42;100145.25;;;22.87;52.62
38227;BME280;24026;49.446;8.576;2022-09-09T11:03:05;100139.84;;;22.87;52.63
38227;BME280;24026;49.446;8.576;2022-09-09T11:05:31;100141.56;;;22.91;51.91
38227;BME280;24026;49.446;8.576;2022-09-09T11:08:03;100141.22;;;22.93;52.11
38227;BME280;24026;49.446;8.576;2022-09-09T11:10:46;100138.78;;;23.00;52.20
38227;BME280;24026;49.446;8.576;2022-09-09T11:13:18;100131.59;;;23.04;51.63
38227;BME280;24026;49.446;8.576;2022-09-09T11:15:45;100129.38;;;23.06;51.61
38227;BME280;24026;49.446;8.576;2022-09-09T11:18:09;100133.34;;;23.09;51.32
38227;BME280;24026;49.446;8.576;2022-09-09T11:20:33;100135.25;;;23.08;51.24
38227;BME280;24026;49.446;8.576;2022-09-09T11:23:03;100125.66;;;23.11;51.02
38227;BME280;24026;49.446;8.576;2022-09-09T11:25:30;100122.09;;;23.19;50.52
38227;BME280;24026;49.446;8.576;2022-09-09T11:28:17;100118.84;;;23.26;50.46
38227;BME280;24026;49.446;8.576;2022-09-09T11:31:15;100120.69;;;23.34;49.97
38227;BME280;24026;49.446;8.576;2022-09-09T11:33:48;100119.66;;;23.39;49.31
38227;BME280;24026;49.446;8.576;2022-09-09T11:39:12;100122.28;;;23.47;49.25
38227;BME280;24026;49.446;8.576;2022-09-09T11:41:37;100120.50;;;23.52;49.22
38227;BME280;24026;49.446;8.576;2022-09-09T11:43:58;100120.94;;;23.54;48.89
38227;BME280;24026;49.446;8.576;2022-09-09T11:46:21;100121.41;;;23.56;48.63
38227;BME280;24026;49.446;8.576;2022-09-09T11:48:44;100119.94;;;23.58;48.53
38227;BME280;24026;49.446;8.576;2022-09-09T11:51:24;100117.69;;;23.60;48.28
38227;BME280;24026;49.446;8.576;2022-09-09T11:53:58;100114.28;;;23.63;48.34
38227;BME280;24026;49.446;8.576;2022-09-09T11:56:30;100122.88;;;23.65;47.96
38227;BME280;24026;49.446;8.576;2022-09-09T11:59:01;100124.16;;;23.68;47.89
38227;BME280;24026;49.446;8.576;2022-09-09T12:01:39;100116.78;;;23.68;47.97
38227;BME280;24026;49.446;8.576;2022-09-09T12:06:31;100109.13;;;23.71;47.92
38227;BME280;24026;49.446;8.576;2022-09-09T12:08:56;100123.16;;;23.73;47.79
38227;BME280;24026;49.446;8.576;2022-09-09T12:11:29;100115.78;;;23.73;47.65
38227;BME280;24026;49.446;8.576;2022-09-09T12:13:56;100117.72;;;23.73;47.78
38227;BME280;24026;49.446;8.576;2022-09-09T12:16:36;100119.28;;;23.74;47.79
38227;BME280;24026;49.446;8.576;2022-09-09T12:19:23;100120.44;;;23.73;47.77
38227;BME280;24026;49.446;8.576;2022-09-09T12:24:24;100119.63;;;23.72;47.76
38227;BME280;24026;49.446;8.576;2022-09-09T12:29:50;100118.06;;;23.71;47.69
38227;BME280;24026;49.446;8.576;2022-09-09T12:32:23;100115.34;;;23.71;47.93
38227;BME280;24026;49.446;8.576;2022-09-09T12:34:47;100109.59;;;23.73;47.57
38227;BME280;24026;49.446;8.576;2022-09-09T12:37:13;100106.19;;;23.76;47.54
38227;BME280;24026;49.446;8.576;2022-09-09T12:39:43;100114.78;;;23.78;47.58
38227;BME280;24026;49.446;8.576;2022-09-09T12:42:16;100111.88;;;23.83;47.21
38227;BME280;24026;49.446;8.576;2022-09-09T12:44:36;100114.25;;;23.84;47.38
38227;BME280;24026;49.446;8.576;2022-09-09T12:47:00;100121.72;;;23.88;47.26
38227;BME280;24026;49.446;8.576;2022-09-09T12:49:37;100115.63;;;23.91;47.28
38227;BME280;24026;49.446;8.576;2022-09-09T12:52:05;100113.69;;;23.91;47.14
38227;BME280;24026;49.446;8.576;2022-09-09T12:54:27;100111.78;;;23.92;47.16
38227;BME280;24026;49.446;8.576;2022-09-09T12:56:48;100110.66;;;23.93;47.06
38227;BME280;24026;49.446;8.576;2022-09-09T12:59:23;100116.19;;;23.96;46.68
38227;BME280;24026;49.446;8.576;2022-09-09T13:01:44;100102.28;;;23.98;46.80
38227;BME280;24026;49.446;8.576;2022-09-09T13:04:20;100106.22;;;24.00;46.54
38227;BME280;24026;49.446;8.576;2022-09-09T13:06:42;100096.63;;;24.03;46.71
38227;BME280;24026;49.446;8.576;2022-09-09T13:09:02;100095.94;;;24.06;46.44
38227;BME280;24026;49.446;8.576;2022-09-09T13:13:56;100104.09;;;24.06;46.40
38227;BME280;24026;49.446;8.576;2022-09-09T13:16:20;100110.31;;;24.07;46.53
38227;BME280;24026;49.446;8.576;2022-09-09T13:18:41;100111.78;;;24.04;46.51
38227;BME280;24026;49.446;8.576;2022-09-09T13:21:02;100116.41;;;24.03;46.34
38227;BME280;24026;49.446;8.576;2022-09-09T13:23:27;100122.19;;;24.02;46.43
38227;BME280;24026;49.446;8.576;2022-09-09T13:25:56;100121.72;;;24.00;46.57
38227;BME280;24026;49.446;8.576;2022-09-09T13:28:22;100131.00;;;23.99;46.66
38227;BME280;24026;49.446;8.576;2022-09-09T13:30:56;100139.50;;;23.97;46.78
38227;BME280;24026;49.446;8.576;2022-09-09T13:33:22;100157.22;;;23.95;46.92
38227;BME280;24026;49.446;8.576;2022-09-09T13:35:55;100147.50;;;23.94;46.79
38227;BME280;24026;49.446;8.576;2022-09-09T13:38:17;100159.84;;;23.91;46.98
38227;BME280;24026;49.446;8.576;2022-09-09T13:40:37;100163.78;;;23.94;47.00
38227;BME280;24026;49.446;8.576;2022-09-09T13:42:58;100155.97;;;23.92;46.96
38227;BME280;24026;49.446;8.576;2022-09-09T13:45:21;100150.22;;;23.94;46.80
38227;BME280;24026;49.446;8.576;2022-09-09T13:47:43;100153.84;;;23.98;46.64
38227;BME280;24026;49.446;8.576;2022-09-09T13:50:26;100150.91;;;24.03;46.68
38227;BME280;24026;49.446;8.576;2022-09-09T13:52:48;100140.84;;;24.03;46.49
38227;BME280;24026;49.446;8.576;2022-09-09T13:55:10;100138.13;;;24.03;46.39
38227;BME280;24026;49.446;8.576;2022-09-09T13:57:30;100136.56;;;24.02;46.33
38227;BME280;24026;49.446;8.576;2022-09-09T13:59:53;100138.47;;;24.02;46.20
38227;BME280;24026;49.446;8.576;2022-09-09T14:02:15;100138.78;;;24.00;46.30
38227;BME280;24026;49.446;8.576;2022-09-09T14:04:39;100126.16;;;24.04;46.02